sensor_id;sensor_type;location;lat;lon;timestamp;pressure;altitude;pressure_sealevel;temperature;humidity
9325;BME280;4701;51.566;6.776;2024-01-10T06:06:20;-17886.06;;;-4.99;73.08
9325;BME280;4701;51.566;6.776;2024-01-10T06:11:22;-17886.50;;;-4.98;73.52
9325;BME280;4701;51.566;6.776;2024-01-10T06:16:23;-17886.81;;;-4.97;73.53
9325;BME280;4701;51.566;6.776;2024-01-10T06:21:27;-17886.81;;;-4.97;73.37
9325;BME280;4701;51.566;6.776;2024-01-10T06:26:28;-17887.13;;;-4.96;72.96
9325;BME280;4701;51.566;6.776;2024-01-10T06:31:30;-17886.97;;;-4.96;72.96
9325;BME280;4701;51.566;6.776;2024-01-10T06:36:33;-17887.28;;;-4.95;73.59
9325;BME280;4701;51.566;6.776;2024-01-10T06:41:34;-17887.44;;;-4.94;73.69
9325;BME280;4701;51.566;6.776;2024-01-10T06:46:36;-17887.59;;;-4.94;73.49
9325;BME280;4701;51.566;6.776;2024-01-10T06:51:39;-17887.88;;;-4.93;73.71
9325;BME280;4701;51.566;6.776;2024-01-10T06:56:41;-17888.03;;;-4.92;73.71
9325;BME280;4701;51.566;6.776;2024-01-10T07:01:42;-17888.34;;;-4.91;74.20
9325;BME280;4701;51.566;6.776;2024-01-10T07:06:45;-17888.19;;;-4.92;73.90
9325;BME280;4701;51.566;6.776;2024-01-10T07:11:47;-17888.50;;;-4.91;73.71
9325;BME280;4701;51.566;6.776;2024-01-10T07:16:49;-17888.66;;;-4.90;74.24
9325;BME280;4701;51.566;6.776;2024-01-10T07:21:52;-17888.81;;;-4.90;74.67
9325;BME280;4701;51.566;6.776;2024-01-10T07:26:54;-17889.25;;;-4.88;74.22
9325;BME280;4701;51.566;6.776;2024-01-10T15:34:07;-17999.28;;;-1.24;74.16
9325;BME280;4701;51.566;6.776;2024-01-10T15:39:09;-17998.66;;;-1.26;74.99
9325;BME280;4701;51.566;6.776;2024-01-10T15:44:12;-17998.66;;;-1.26;74.71
9325;BME280;4701;51.566;6.776;2024-01-10T15:49:15;-17998.66;;;-1.26;74.01
9325;BME280;4701;51.566;6.776;2024-01-10T15:54:17;-17997.75;;;-1.29;73.53
9325;BME280;4701;51.566;6.776;2024-01-10T15:59:19;-17997.75;;;-1.29;73.77
9325;BME280;4701;51.566;6.776;2024-01-10T16:04:22;-17997.31;;;-1.30;73.47
9325;BME280;4701;51.566;6.776;2024-01-10T16:09:23;-17996.22;;;-1.34;73.78
9325;BME280;4701;51.566;6.776;2024-01-10T16:14:25;-17995.91;;;-1.35;74.07
9325;BME280;4701;51.566;6.776;2024-01-10T16:19:28;-17995.31;;;-1.37;73.50
9325;BME280;4701;51.566;6.776;2024-01-10T16:24:30;-17994.84;;;-1.38;73.37
9325;BME280;4701;51.566;6.776;2024-01-10T16:29:31;-17994.25;;;-1.40;73.50
9325;BME280;4701;51.566;6.776;2024-01-10T16:34:34;-17993.16;;;-1.44;73.37
9325;BME280;4701;51.566;6.776;2024-01-10T16:39:37;-17992.25;;;-1.47;73.35
9325;BME280;4701;51.566;6.776;2024-01-10T16:44:39;-17991.03;;;-1.51;73.12
9325;BME280;4701;51.566;6.776;2024-01-10T16:49:43;-17990.56;;;-1.53;73.19
9325;BME280;4701;51.566;6.776;2024-01-10T16:54:44;-17989.19;;;-1.57;72.77
9325;BME280;4701;51.566;6.776;2024-01-10T16:59:46;-17988.28;;;-1.60;73.18
9325;BME280;4701;51.566;6.776;2024-01-10T17:04:49;-17987.69;;;-1.62;73.20
9325;BME280;4701;51.566;6.776;2024-01-10T17:09:51;-17987.22;;;-1.64;73.48
9325;BME280;4701;51.566;6.776;2024-01-10T17:14:52;-17986.59;;;-1.66;73.36
9325;BME280;4701;51.566;6.776;2024-01-10T17:19:55;-17985.53;;;-1.69;73.76
9325;BME280;4701;51.566;6.776;2024-01-10T17:24:57;-17984.63;;;-1.72;73.76
9325;BME280;4701;51.566;6.776;2024-01-10T17:29:58;-17983.84;;;-1.75;74.17
9325;BME280;4701;51.566;6.776;2024-01-10T17:35:01;-17983.09;;;-1.77;74.60
9325;BME280;4701;51.566;6.776;2024-01-10T17:40:04;-17982.34;;;-1.80;74.64
9325;BME280;4701;51.566;6.776;2024-01-10T17:45:07;-17982.03;;;-1.81;74.85
9325;BME280;4701;51.566;6.776;2024-01-10T17:50:10;-17980.94;;;-1.84;74.92
9325;BME280;4701;51.566;6.776;2024-01-10T17:55:12;-17979.59;;;-1.89;75.35
9325;BME280;4701;51.566;6.776;2024-01-10T18:00:14;-17978.34;;;-1.93;75.71
9325;BME280;4701;51.566;6.776;2024-01-10T18:05:17;-17976.97;;;-1.98;75.80
9325;BME280;4701;51.566;6.776;2024-01-10T18:10:19;-17976.84;;;-1.98;75.62
9325;BME280;4701;51.566;6.776;2024-01-10T18:15:21;-17976.06;;;-2.01;75.33
9325;BME280;4701;51.566;6.776;2024-01-10T18:20:24;-17975.44;;;-2.03;75.16
9325;BME280;4701;51.566;6.776;2024-01-10T18:25:25;-17974.53;;;-2.06;75.11
9325;BME280;4701;51.566;6.776;2024-01-10T18:30:27;-17973.94;;;-2.08;75.35
9325;BME280;4701;51.566;6.776;2024-01-10T18:35:30;-17973.00;;;-2.11;75.31
9325;BME280;4701;51.566;6.776;2024-01-10T18:40:31;-17972.41;;;-2.13;75.55
9325;BME280;4701;51.566;6.776;2024-01-10T18:45:33;-17971.78;;;-2.15;75.55
9325;BME280;4701;51.566;6.776;2024-01-10T18:50:36;-17971.34;;;-2.16;75.69
9325;BME280;4701;51.566;6.776;2024-01-10T18:55:39;-17970.56;;;-2.19;75.57
9325;BME280;4701;51.566;6.776;2024-01-10T19:00:40;-17970.09;;;-2.20;75.84
9325;BME280;4701;51.566;6.776;2024-01-10T19:05:44;-17969.50;;;-2.22;75.87
9325;BME280;4701;51.566;6.776;2024-01-10T19:10:46;-17969.19;;;-2.23;75.90
9325;BME280;4701;51.566;6.776;2024-01-10T19:15:48;-17969.03;;;-2.24;75.84
9325;BME280;4701;51.566;6.776;2024-01-10T19:20:51;-17968.44;;;-2.26;75.88
9325;BME280;4701;51.566;6.776;2024-01-10T19:25:52;-17967.66;;;-2.29;76.00
9325;BME280;4701;51.566;6.776;2024-01-10T19:30:59;-17967.06;;;-2.31;76.25
9325;BME280;4701;51.566;6.776;2024-01-10T19:36:03;-17966.75;;;-2.32;76.54
9325;BME280;4701;51.566;6.776;2024-01-10T19:41:07;-17966.59;;;-2.32;76.65
9325;BME280;4701;51.566;6.776;2024-01-10T19:46:09;-17965.81;;;-2.35;76.68
9325;BME280;4701;51.566;6.776;2024-01-10T19:51:13;-17965.69;;;-2.35;76.96
9325;BME280;4701;51.566;6.776;2024-01-10T19:56:16;-17965.38;;;-2.36;77.19
9325;BME280;4701;51.566;6.776;2024-01-10T20:01:18;-17964.75;;;-2.38;77.53
9325;BME280;4701;51.566;6.776;2024-01-10T20:06:21;-17964.31;;;-2.40;77.55
9325;BME280;4701;51.566;6.776;2024-01-10T20:11:23;-17963.53;;;-2.42;77.75
9325;BME280;4701;51.566;6.776;2024-01-10T20:16:25;-17963.22;;;-2.43;78.15
9325;BME280;4701;51.566;6.776;2024-01-10T20:21:28;-17962.16;;;-2.47;78.13
9325;BME280;4701;51.566;6.776;2024-01-10T20:26:32;-17961.41;;;-2.49;78.32
9325;BME280;4701;51.566;6.776;2024-01-10T20:31:34;-17960.63;;;-2.52;78.42
9325;BME280;4701;51.566;6.776;2024-01-10T20:36:37;-17960.31;;;-2.53;78.09
9325;BME280;4701;51.566;6.776;2024-01-10T20:41:40;-17959.41;;;-2.56;78.25
9325;BME280;4701;51.566;6.776;2024-01-10T20:46:41;-17959.25;;;-2.56;78.32
9325;BME280;4701;51.566;6.776;2024-01-10T20:51:44;-17958.19;;;-2.60;78.11
9325;BME280;4701;51.566;6.776;2024-01-10T20:56:46;-17957.72;;;-2.61;78.39
9325;BME280;4701;51.566;6.776;2024-01-10T21:01:48;-17956.81;;;-2.64;78.37
9325;BME280;4701;51.566;6.776;2024-01-10T21:06:50;-17956.50;;;-2.65;78.80
9325;BME280;4701;51.566;6.776;2024-01-10T21:11:56;-17955.59;;;-2.69;78.76
9325;BME280;4701;51.566;6.776;2024-01-10T21:16:59;-17954.81;;;-2.71;78.83
9325;BME280;4701;51.566;6.776;2024-01-10T21:22:01;-17954.06;;;-2.74;79.17
9325;BME280;4701;51.566;6.776;2024-01-10T21:27:03;-17953.44;;;-2.76;79.15
